sensor_id;sensor_type;location;lat;lon;timestamp;temperature;humidity
68719;DHT22;55696;52.138;5.444;2022-10-16T00:01:28;17.10;67.00
68719;DHT22;55696;52.138;5.444;2022-10-16T00:03:57;16.60;66.70
68719;DHT22;55696;52.138;5.444;2022-10-16T00:06:25;16.60;66.30
68719;DHT22;55696;52.138;5.444;2022-10-16T00:08:52;16.50;66.30
68719;DHT22;55696;52.138;5.444;2022-10-16T00:11:28;16.60;65.80
68719;DHT22;55696;52.138;5.444;2022-10-16T00:13:57;16.70;67.30
68719;DHT22;55696;52.138;5.444;2022-10-16T00:16:25;16.60;66.60
68719;DHT22;55696;52.138;5.444;2022-10-16T00:18:52;17.50;66.60
68719;DHT22;55696;52.138;5.444;2022-10-16T00:21:22;16.60;65.70
68719;DHT22;55696;52.138;5.444;2022-10-16T00:23:54;16.70;66.70
68719;DHT22;55696;52.138;5.444;2022-10-16T00:26:22;16.60;67.20
68719;DHT22;55696;52.138;5.444;2022-10-16T00:28:50;16.60;66.00
68719;DHT22;55696;52.138;5.444;2022-10-16T00:31:19;16.60;66.80
68719;DHT22;55696;52.138;5.444;2022-10-16T00:33:46;16.50;66.70
68719;DHT22;55696;52.138;5.444;2022-10-16T00:36:16;16.50;66.40
68719;DHT22;55696;52.138;5.444;2022-10-16T00:38:44;16.90;67.20
68719;DHT22;55696;52.138;5.444;2022-10-16T00:41:17;16.60;66.40
68719;DHT22;55696;52.138;5.444;2022-10-16T00:43:50;16.60;66.90
68719;DHT22;55696;52.138;5.444;2022-10-16T00:46:21;17.70;68.00
68719;DHT22;55696;52.138;5.444;2022-10-16T00:51:41;16.60;67.90
68719;DHT22;55696;52.138;5.444;2022-10-16T00:54:15;16.70;66.80
68719;DHT22;55696;52.138;5.444;2022-10-16T00:56:44;16.70;66.80
68719;DHT22;55696;52.138;5.444;2022-10-16T00:59:17;17.70;67.10
68719;DHT22;55696;52.138;5.444;2022-10-16T01:01:45;16.60;67.40
68719;DHT22;55696;52.138;5.444;2022-10-16T01:04:12;17.10;66.20
68719;DHT22;55696;52.138;5.444;2022-10-16T01:06:49;16.80;66.40
68719;DHT22;55696;52.138;5.444;2022-10-16T01:18:25;16.90;67.20
68719;DHT22;55696;52.138;5.444;2022-10-16T01:21:02;16.90;67.30
68719;DHT22;55696;52.138;5.444;2022-10-16T01:23:51;16.90;67.30
68719;DHT22;55696;52.138;5.444;2022-10-16T01:32:19;17.00;66.90
68719;DHT22;55696;52.138;5.444;2022-10-16T01:34:53;17.00;66.70
68719;DHT22;55696;52.138;5.444;2022-10-16T01:37:38;16.90;67.30
68719;DHT22;55696;52.138;5.444;2022-10-16T01:40:10;17.00;67.50
68719;DHT22;55696;52.138;5.444;2022-10-16T01:42:42;17.10;67.10
68719;DHT22;55696;52.138;5.444;2022-10-16T01:45:12;16.90;67.00
68719;DHT22;55696;52.138;5.444;2022-10-16T01:47:40;17.00;66.80
68719;DHT22;55696;52.138;5.444;2022-10-16T01:50:08;17.10;66.50
68719;DHT22;55696;52.138;5.444;2022-10-16T01:52:37;17.10;66.10
68719;DHT22;55696;52.138;5.444;2022-10-16T01:55:07;17.00;66.70
68719;DHT22;55696;52.138;5.444;2022-10-16T01:57:37;17.20;66.60
68719;DHT22;55696;52.138;5.444;2022-10-16T02:00:09;17.00;66.90
68719;DHT22;55696;52.138;5.444;2022-10-16T02:02:46;17.00;66.90
68719;DHT22;55696;52.138;5.444;2022-10-16T02:05:20;17.00;68.00
68719;DHT22;55696;52.138;5.444;2022-10-16T02:07:48;17.00;67.00
68719;DHT22;55696;52.138;5.444;2022-10-16T02:10:16;18.10;66.60
68719;DHT22;55696;52.138;5.444;2022-10-16T02:12:50;17.20;66.40
68719;DHT22;55696;52.138;5.444;2022-10-16T02:15:20;17.20;67.30
68719;DHT22;55696;52.138;5.444;2022-10-16T02:17:47;17.10;66.10
68719;DHT22;55696;52.138;5.444;2022-10-16T02:20:14;17.00;66.10
68719;DHT22;55696;52.138;5.444;2022-10-16T02:22:44;17.10;66.30
68719;DHT22;55696;52.138;5.444;2022-10-16T02:25:30;17.10;67.10
68719;DHT22;55696;52.138;5.444;2022-10-16T02:28:08;17.10;67.80
68719;DHT22;55696;52.138;5.444;2022-10-16T02:30:51;17.10;67.00
68719;DHT22;55696;52.138;5.444;2022-10-16T02:33:21;17.10;67.10
68719;DHT22;55696;52.138;5.444;2022-10-16T02:35:50;16.90;67.10
68719;DHT22;55696;52.138;5.444;2022-10-16T02:38:18;17.00;67.10
68719;DHT22;55696;52.138;5.444;2022-10-16T02:40:45;16.90;66.60
68719;DHT22;55696;52.138;5.444;2022-10-16T02:43:12;17.70;67.20
68719;DHT22;55696;52.138;5.444;2022-10-16T02:45:39;16.80;67.00
68719;DHT22;55696;52.138;5.444;2022-10-16T02:48:06;16.90;67.10
68719;DHT22;55696;52.138;5.444;2022-10-16T02:50:33;16.70;67.00
68719;DHT22;55696;52.138;5.444;2022-10-16T02:53:00;16.80;67.20
68719;DHT22;55696;52.138;5.444;2022-10-16T02:55:27;16.60;67.20
68719;DHT22;55696;52.138;5.444;2022-10-16T02:57:54;16.60;67.30
68719;DHT22;55696;52.138;5.444;2022-10-16T03:00:21;16.70;67.50
68719;DHT22;55696;52.138;5.444;2022-10-16T03:02:48;16.70;67.50
68719;DHT22;55696;52.138;5.444;2022-10-16T03:05:15;16.80;67.50
68719;DHT22;55696;52.138;5.444;2022-10-16T03:07:42;17.20;67.80
68719;DHT22;55696;52.138;5.444;2022-10-16T03:10:09;16.70;67.50
68719;DHT22;55696;52.138;5.444;2022-10-16T03:12:36;16.80;67.50
68719;DHT22;55696;52.138;5.444;2022-10-16T03:15:03;16.80;67.60
68719;DHT22;55696;52.138;5.444;2022-10-16T03:17:31;16.80;67.80
68719;DHT22;55696;52.138;5.444;2022-10-16T03:19:58;16.70;68.10
68719;DHT22;55696;52.138;5.444;2022-10-16T03:22:24;16.70;67.40
68719;DHT22;55696;52.138;5.444;2022-10-16T03:24:51;17.60;68.00
68719;DHT22;55696;52.138;5.444;2022-10-16T03:27:18;16.80;67.60
68719;DHT22;55696;52.138;5.444;2022-10-16T03:29:45;16.70;67.70
68719;DHT22;55696;52.138;5.444;2022-10-16T03:32:11;16.70;67.80
68719;DHT22;55696;52.138;5.444;2022-10-16T03:34:38;16.70;67.90
68719;DHT22;55696;52.138;5.444;2022-10-16T03:37:05;16.70;68.80
68719;DHT22;55696;52.138;5.444;2022-10-16T03:39:32;16.60;68.00
68719;DHT22;55696;52.138;5.444;2022-10-16T03:41:58;16.60;68.10
68719;DHT22;55696;52.138;5.444;2022-10-16T03:44:25;16.60;68.10
68719;DHT22;55696;52.138;5.444;2022-10-16T03:46:52;18.80;69.20
68719;DHT22;55696;52.138;5.444;2022-10-16T03:49:18;16.70;68.20
68719;DHT22;55696;52.138;5.444;2022-10-16T03:51:45;16.60;68.20
68719;DHT22;55696;52.138;5.444;2022-10-16T03:54:12;16.40;68.20
68719;DHT22;55696;52.138;5.444;2022-10-16T03:56:39;16.50;68.40
68719;DHT22;55696;52.138;5.444;2022-10-16T03:59:05;16.50;68.40
68719;DHT22;55696;52.138;5.444;2022-10-16T04:01:32;16.50;68.40
68719;DHT22;55696;52.138;5.444;2022-10-16T04:03:59;16.50;68.60
68719;DHT22;55696;52.138;5.444;2022-10-16T04:06:25;16.60;68.70
68719;DHT22;55696;52.138;5.444;2022-10-16T04:08:52;16.50;69.50
68719;DHT22;55696;52.138;5.444;2022-10-16T04:11:19;16.50;68.50
68719;DHT22;55696;52.138;5.444;2022-10-16T04:13:45;16.50;68.50
68719;DHT22;55696;52.138;5.444;2022-10-16T04:16:12;16.40;68.40
68719;DHT22;55696;52.138;5.444;2022-10-16T04:18:39;16.50;68.50
68719;DHT22;55696;52.138;5.444;2022-10-16T04:21:06;16.50;68.50
68719;DHT22;55696;52.138;5.444;2022-10-16T04:23:33;16.60;68.80
68719;DHT22;55696;52.138;5.444;2022-10-16T04:26:00;16.40;68.60
68719;DHT22;55696;52.138;5.444;2022-10-16T04:28:27;16.50;68.70
68719;DHT22;55696;52.138;5.444;2022-10-16T04:30:54;16.40;68.60
68719;DHT22;55696;52.138;5.444;2022-10-16T04:33:21;16.40;68.60
68719;DHT22;55696;52.138;5.444;2022-10-16T04:35:48;16.50;68.50
68719;DHT22;55696;52.138;5.444;2022-10-16T04:38:15;16.40;68.60
68719;DHT22;55696;52.138;5.444;2022-10-16T04:40:42;16.50;68.70
68719;DHT22;55696;52.138;5.444;2022-10-16T04:43:09;16.40;69.20
68719;DHT22;55696;52.138;5.444;2022-10-16T04:45:36;16.50;68.70
68719;DHT22;55696;52.138;5.444;2022-10-16T04:48:03;16.30;68.70
68719;DHT22;55696;52.138;5.444;2022-10-16T04:50:29;16.40;69.00
68719;DHT22;55696;52.138;5.444;2022-10-16T04:53:04;16.30;68.80
68719;DHT22;55696;52.138;5.444;2022-10-16T04:55:31;16.30;68.80
68719;DHT22;55696;52.138;5.444;2022-10-16T04:57:58;16.40;68.90
68719;DHT22;55696;52.138;5.444;2022-10-16T05:00:25;16.40;68.70
68719;DHT22;55696;52.138;5.444;2022-10-16T05:02:52;16.50;68.80
68719;DHT22;55696;52.138;5.444;2022-10-16T05:05:18;16.50;69.10
68719;DHT22;55696;52.138;5.444;2022-10-16T05:07:47;16.40;68.90
68719;DHT22;55696;52.138;5.444;2022-10-16T05:10:14;16.30;69.40
68719;DHT22;55696;52.138;5.444;2022-10-16T05:12:40;16.50;69.10
68719;DHT22;55696;52.138;5.444;2022-10-16T05:15:08;16.40;69.20
68719;DHT22;55696;52.138;5.444;2022-10-16T05:17:34;16.40;69.30
68719;DHT22;55696;52.138;5.444;2022-10-16T05:20:04;16.20;69.10
68719;DHT22;55696;52.138;5.444;2022-10-16T05:22:31;16.30;69.30
68719;DHT22;55696;52.138;5.444;2022-10-16T05:24:58;16.90;69.50
68719;DHT22;55696;52.138;5.444;2022-10-16T05:27:25;16.10;69.20
68719;DHT22;55696;52.138;5.444;2022-10-16T05:29:52;16.30;69.40
68719;DHT22;55696;52.138;5.444;2022-10-16T05:32:19;17.00;69.80
68719;DHT22;55696;52.138;5.444;2022-10-16T05:34:46;16.30;69.40
68719;DHT22;55696;52.138;5.444;2022-10-16T05:37:13;16.20;69.40
68719;DHT22;55696;52.138;5.444;2022-10-16T05:39:39;16.10;69.50
68719;DHT22;55696;52.138;5.444;2022-10-16T05:42:06;16.20;69.40
68719;DHT22;55696;52.138;5.444;2022-10-16T05:44:33;16.20;69.70
68719;DHT22;55696;52.138;5.444;2022-10-16T05:47:05;16.10;69.50
68719;DHT22;55696;52.138;5.444;2022-10-16T05:49:31;16.30;69.70
68719;DHT22;55696;52.138;5.444;2022-10-16T05:52:02;16.20;69.50
68719;DHT22;55696;52.138;5.444;2022-10-16T05:54:29;16.30;69.60
68719;DHT22;55696;52.138;5.444;2022-10-16T05:56:56;16.20;69.40
68719;DHT22;55696;52.138;5.444;2022-10-16T05:59:22;16.30;69.40
68719;DHT22;55696;52.138;5.444;2022-10-16T06:01:49;16.40;69.40
68719;DHT22;55696;52.138;5.444;2022-10-16T06:04:16;16.30;69.20
68719;DHT22;55696;52.138;5.444;2022-10-16T06:06:43;16.30;69.10
68719;DHT22;55696;52.138;5.444;2022-10-16T06:09:10;16.40;69.10
68719;DHT22;55696;52.138;5.444;2022-10-16T06:11:36;16.40;69.20
68719;DHT22;55696;52.138;5.444;2022-10-16T06:14:03;17.00;69.40
68719;DHT22;55696;52.138;5.444;2022-10-16T06:16:37;16.50;69.00
68719;DHT22;55696;52.138;5.444;2022-10-16T06:19:03;16.40;70.30
68719;DHT22;55696;52.138;5.444;2022-10-16T06:21:32;16.50;69.00
68719;DHT22;55696;52.138;5.444;2022-10-16T06:23:59;17.20;69.50
68719;DHT22;55696;52.138;5.444;2022-10-16T06:26:28;16.50;69.30
68719;DHT22;55696;52.138;5.444;2022-10-16T06:28:56;16.50;69.80
68719;DHT22;55696;52.138;5.444;2022-10-16T06:31:26;16.60;69.70
68719;DHT22;55696;52.138;5.444;2022-10-16T06:33:55;16.60;70.20
68719;DHT22;55696;52.138;5.444;2022-10-16T06:36:23;16.60;69.00
68719;DHT22;55696;52.138;5.444;2022-10-16T06:38:51;16.60;69.30
68719;DHT22;55696;52.138;5.444;2022-10-16T06:41:20;16.60;69.10
68719;DHT22;55696;52.138;5.444;2022-10-16T06:43:47;16.70;69.60
68719;DHT22;55696;52.138;5.444;2022-10-16T06:46:16;17.10;69.20
68719;DHT22;55696;52.138;5.444;2022-10-16T06:48:44;16.70;69.80
68719;DHT22;55696;52.138;5.444;2022-10-16T06:51:24;16.70;69.30
68719;DHT22;55696;52.138;5.444;2022-10-16T06:53:53;16.70;70.40
68719;DHT22;55696;52.138;5.444;2022-10-16T06:56:30;16.70;69.70
68719;DHT22;55696;52.138;5.444;2022-10-16T06:58:58;16.70;70.30
68719;DHT22;55696;52.138;5.444;2022-10-16T07:01:26;16.60;69.40
68719;DHT22;55696;52.138;5.444;2022-10-16T07:03:53;16.70;69.40
68719;DHT22;55696;52.138;5.444;2022-10-16T07:06:22;16.70;69.50
68719;DHT22;55696;52.138;5.444;2022-10-16T07:08:49;16.80;69.80
68719;DHT22;55696;52.138;5.444;2022-10-16T07:11:19;16.60;69.10
68719;DHT22;55696;52.138;5.444;2022-10-16T07:13:46;16.90;69.80
68719;DHT22;55696;52.138;5.444;2022-10-16T07:16:24;16.90;69.50
68719;DHT22;55696;52.138;5.444;2022-10-16T07:18:51;16.80;69.60
68719;DHT22;55696;52.138;5.444;2022-10-16T07:21:24;16.70;68.80
68719;DHT22;55696;52.138;5.444;2022-10-16T07:23:57;16.80;69.00
68719;DHT22;55696;52.138;5.444;2022-10-16T07:26:26;16.90;69.30
68719;DHT22;55696;52.138;5.444;2022-10-16T07:28:53;16.90;68.90
68719;DHT22;55696;52.138;5.444;2022-10-16T07:31:20;16.90;68.60
68719;DHT22;55696;52.138;5.444;2022-10-16T07:33:47;16.90;68.50
68719;DHT22;55696;52.138;5.444;2022-10-16T07:36:15;17.00;68.50
68719;DHT22;55696;52.138;5.444;2022-10-16T07:38:43;17.10;68.70
68719;DHT22;55696;52.138;5.444;2022-10-16T07:41:15;17.00;68.10
68719;DHT22;55696;52.138;5.444;2022-10-16T07:43:46;17.00;68.90
68719;DHT22;55696;52.138;5.444;2022-10-16T07:46:14;17.00;68.80
68719;DHT22;55696;52.138;5.444;2022-10-16T07:48:41;17.10;67.90
68719;DHT22;55696;52.138;5.444;2022-10-16T07:51:13;18.00;68.20
68719;DHT22;55696;52.138;5.444;2022-10-16T07:53:40;17.10;67.90
68719;DHT22;55696;52.138;5.444;2022-10-16T07:56:07;17.10;67.80
68719;DHT22;55696;52.138;5.444;2022-10-16T07:58:35;16.90;68.20
68719;DHT22;55696;52.138;5.444;2022-10-16T08:01:06;17.00;68.90
68719;DHT22;55696;52.138;5.444;2022-10-16T08:03:34;17.00;70.10
68719;DHT22;55696;52.138;5.444;2022-10-16T08:06:01;16.90;68.80
68719;DHT22;55696;52.138;5.444;2022-10-16T08:08:28;17.10;69.00
68719;DHT22;55696;52.138;5.444;2022-10-16T08:10:55;17.10;68.60
68719;DHT22;55696;52.138;5.444;2022-10-16T08:13:22;17.10;68.50
68719;DHT22;55696;52.138;5.444;2022-10-16T08:15:48;17.20;68.60
68719;DHT22;55696;52.138;5.444;2022-10-16T08:18:16;17.30;68.40
68719;DHT22;55696;52.138;5.444;2022-10-16T08:20:43;17.30;68.30
68719;DHT22;55696;52.138;5.444;2022-10-16T08:23:11;17.40;68.00
68719;DHT22;55696;52.138;5.444;2022-10-16T08:25:39;17.30;68.50
68719;DHT22;55696;52.138;5.444;2022-10-16T08:28:07;17.40;67.70
68719;DHT22;55696;52.138;5.444;2022-10-16T08:30:34;17.30;67.60
68719;DHT22;55696;52.138;5.444;2022-10-16T08:33:01;17.50;67.40
68719;DHT22;55696;52.138;5.444;2022-10-16T08:35:28;17.50;67.10
68719;DHT22;55696;52.138;5.444;2022-10-16T08:37:55;17.50;66.80
68719;DHT22;55696;52.138;5.444;2022-10-16T08:40:29;17.60;66.90
68719;DHT22;55696;52.138;5.444;2022-10-16T08:48:53;17.90;67.80
68719;DHT22;55696;52.138;5.444;2022-10-16T08:51:29;17.70;67.40
68719;DHT22;55696;52.138;5.444;2022-10-16T08:56:43;18.00;67.00
68719;DHT22;55696;52.138;5.444;2022-10-16T08:59:10;17.90;65.80
68719;DHT22;55696;52.138;5.444;2022-10-16T09:01:44;18.00;65.90
68719;DHT22;55696;52.138;5.444;2022-10-16T09:13:00;18.20;65.40
68719;DHT22;55696;52.138;5.444;2022-10-16T09:15:35;18.20;65.90
68719;DHT22;55696;52.138;5.444;2022-10-16T09:18:26;18.30;65.00
68719;DHT22;55696;52.138;5.444;2022-10-16T09:21:12;18.30;66.40
68719;DHT22;55696;52.138;5.444;2022-10-16T09:23:41;18.50;65.60
68719;DHT22;55696;52.138;5.444;2022-10-16T09:26:12;18.40;64.60
68719;DHT22;55696;52.138;5.444;2022-10-16T09:28:40;18.50;65.20
68719;DHT22;55696;52.138;5.444;2022-10-16T09:31:25;18.60;64.20
68719;DHT22;55696;52.138;5.444;2022-10-16T09:33:57;18.80;65.00
68719;DHT22;55696;52.138;5.444;2022-10-16T09:36:25;19.20;65.00
68719;DHT22;55696;52.138;5.444;2022-10-16T09:39:07;19.40;64.40
68719;DHT22;55696;52.138;5.444;2022-10-16T09:41:37;18.70;64.80
68719;DHT22;55696;52.138;5.444;2022-10-16T09:44:26;18.90;64.10
68719;DHT22;55696;52.138;5.444;2022-10-16T09:47:04;18.90;64.10
68719;DHT22;55696;52.138;5.444;2022-10-16T09:49:32;19.00;64.60
68719;DHT22;55696;52.138;5.444;2022-10-16T09:52:13;19.00;63.30
68719;DHT22;55696;52.138;5.444;2022-10-16T09:54:54;19.20;63.50
68719;DHT22;55696;52.138;5.444;2022-10-16T09:57:22;19.10;63.30
68719;DHT22;55696;52.138;5.444;2022-10-16T09:59:51;19.10;63.00
68719;DHT22;55696;52.138;5.444;2022-10-16T10:02:21;19.00;63.30
68719;DHT22;55696;52.138;5.444;2022-10-16T10:04:53;20.00;63.60
68719;DHT22;55696;52.138;5.444;2022-10-16T10:07:26;19.20;63.10
68719;DHT22;55696;52.138;5.444;2022-10-16T10:09:56;19.50;62.50
68719;DHT22;55696;52.138;5.444;2022-10-16T10:12:28;19.50;61.40
68719;DHT22;55696;52.138;5.444;2022-10-16T10:15:04;19.60;60.80
68719;DHT22;55696;52.138;5.444;2022-10-16T10:17:32;19.60;60.40
68719;DHT22;55696;52.138;5.444;2022-10-16T10:20:22;19.50;60.20
68719;DHT22;55696;52.138;5.444;2022-10-16T10:22:49;19.70;61.20
68719;DHT22;55696;52.138;5.444;2022-10-16T10:26:24;20.10;59.70
68719;DHT22;55696;52.138;5.444;2022-10-16T10:28:46;20.20;59.50
68719;DHT22;55696;52.138;5.444;2022-10-16T10:36:50;20.40;58.80
68719;DHT22;55696;52.138;5.444;2022-10-16T10:39:30;20.20;58.50
68719;DHT22;55696;52.138;5.444;2022-10-16T10:45:17;20.10;58.20
68719;DHT22;55696;52.138;5.444;2022-10-16T10:50:45;20.20;58.50
68719;DHT22;55696;52.138;5.444;2022-10-16T10:56:39;20.50;56.90
68719;DHT22;55696;52.138;5.444;2022-10-16T11:02:00;20.30;56.40
68719;DHT22;55696;52.138;5.444;2022-10-16T11:07:57;20.30;57.20
68719;DHT22;55696;52.138;5.444;2022-10-16T11:10:52;20.30;57.20
68719;DHT22;55696;52.138;5.444;2022-10-16T11:14:06;19.90;57.40
68719;DHT22;55696;52.138;5.444;2022-10-16T11:16:23;20.20;57.00
68719;DHT22;55696;52.138;5.444;2022-10-16T11:19:04;20.40;56.80
68719;DHT22;55696;52.138;5.444;2022-10-16T11:21:44;20.10;56.00
68719;DHT22;55696;52.138;5.444;2022-10-16T11:24:24;19.90;55.70
68719;DHT22;55696;52.138;5.444;2022-10-16T11:27:00;19.80;55.70
68719;DHT22;55696;52.138;5.444;2022-10-16T11:29:32;19.60;55.50
68719;DHT22;55696;52.138;5.444;2022-10-16T11:32:06;19.50;55.90
68719;DHT22;55696;52.138;5.444;2022-10-16T11:34:44;19.50;56.60
68719;DHT22;55696;52.138;5.444;2022-10-16T11:37:19;19.50;56.60
68719;DHT22;55696;52.138;5.444;2022-10-16T11:39:48;19.50;56.30
68719;DHT22;55696;52.138;5.444;2022-10-16T11:42:30;19.70;55.90
68719;DHT22;55696;52.138;5.444;2022-10-16T11:48:31;20.00;55.50
68719;DHT22;55696;52.138;5.444;2022-10-16T11:56:31;20.40;55.00
68719;DHT22;55696;52.138;5.444;2022-10-16T11:59:10;21.10;53.60
68719;DHT22;55696;52.138;5.444;2022-10-16T12:01:48;20.40;52.80
68719;DHT22;55696;52.138;5.444;2022-10-16T12:04:34;21.00;53.60
68719;DHT22;55696;52.138;5.444;2022-10-16T12:07:09;20.30;52.60
68719;DHT22;55696;52.138;5.444;2022-10-16T12:09:39;20.10;52.00
68719;DHT22;55696;52.138;5.444;2022-10-16T12:12:47;21.10;51.90
68719;DHT22;55696;52.138;5.444;2022-10-16T12:15:23;20.40;51.50
68719;DHT22;55696;52.138;5.444;2022-10-16T12:18:22;20.90;51.50
68719;DHT22;55696;52.138;5.444;2022-10-16T12:20:58;21.80;50.80
68719;DHT22;55696;52.138;5.444;2022-10-16T12:23:27;21.00;50.10
68719;DHT22;55696;52.138;5.444;2022-10-16T12:25:55;21.00;50.10
68719;DHT22;55696;52.138;5.444;2022-10-16T12:28:31;20.50;50.70
68719;DHT22;55696;52.138;5.444;2022-10-16T12:31:05;20.70;51.10
68719;DHT22;55696;52.138;5.444;2022-10-16T12:33:40;20.80;51.30
68719;DHT22;55696;52.138;5.444;2022-10-16T12:36:15;21.10;51.00
68719;DHT22;55696;52.138;5.444;2022-10-16T12:38:52;21.20;50.80
68719;DHT22;55696;52.138;5.444;2022-10-16T12:41:34;21.50;50.90
68719;DHT22;55696;52.138;5.444;2022-10-16T12:44:01;21.80;50.60
68719;DHT22;55696;52.138;5.444;2022-10-16T12:51:42;22.00;49.10
68719;DHT22;55696;52.138;5.444;2022-10-16T13:02:40;22.30;47.10
68719;DHT22;55696;52.138;5.444;2022-10-16T13:10:53;22.50;47.10
68719;DHT22;55696;52.138;5.444;2022-10-16T13:18:56;22.40;46.10
68719;DHT22;55696;52.138;5.444;2022-10-16T13:21:50;22.50;46.10
68719;DHT22;55696;52.138;5.444;2022-10-16T13:27:05;22.30;45.90
68719;DHT22;55696;52.138;5.444;2022-10-16T13:29:33;22.20;46.60
68719;DHT22;55696;52.138;5.444;2022-10-16T13:32:06;22.30;46.80
68719;DHT22;55696;52.138;5.444;2022-10-16T13:34:41;22.40;47.30
68719;DHT22;55696;52.138;5.444;2022-10-16T13:37:23;22.40;47.00
68719;DHT22;55696;52.138;5.444;2022-10-16T13:39:50;22.60;47.00
68719;DHT22;55696;52.138;5.444;2022-10-16T13:42:26;22.50;47.00
68719;DHT22;55696;52.138;5.444;2022-10-16T13:44:55;22.50;46.80
68719;DHT22;55696;52.138;5.444;2022-10-16T13:47:23;22.40;47.00
68719;DHT22;55696;52.138;5.444;2022-10-16T13:50:12;22.20;46.80
68719;DHT22;55696;52.138;5.444;2022-10-16T13:52:39;22.10;47.20
68719;DHT22;55696;52.138;5.444;2022-10-16T13:55:17;21.70;47.50
68719;DHT22;55696;52.138;5.444;2022-10-16T13:57:45;22.80;49.00
68719;DHT22;55696;52.138;5.444;2022-10-16T14:00:23;21.60;48.10
68719;DHT22;55696;52.138;5.444;2022-10-16T14:02:58;21.70;48.70
68719;DHT22;55696;52.138;5.444;2022-10-16T14:05:27;21.50;48.50
68719;DHT22;55696;52.138;5.444;2022-10-16T14:07:55;22.10;48.70
68719;DHT22;55696;52.138;5.444;2022-10-16T14:10:28;22.00;48.90
68719;DHT22;55696;52.138;5.444;2022-10-16T14:13:03;22.30;49.40
68719;DHT22;55696;52.138;5.444;2022-10-16T14:15:32;21.60;48.90
68719;DHT22;55696;52.138;5.444;2022-10-16T14:18:00;21.80;49.20
68719;DHT22;55696;52.138;5.444;2022-10-16T14:20:32;21.60;49.10
68719;DHT22;55696;52.138;5.444;2022-10-16T14:23:22;21.40;49.20
68719;DHT22;55696;52.138;5.444;2022-10-16T14:25:50;21.60;49.10
68719;DHT22;55696;52.138;5.444;2022-10-16T14:28:20;21.70;49.20
68719;DHT22;55696;52.138;5.444;2022-10-16T14:30:58;21.30;49.70
68719;DHT22;55696;52.138;5.444;2022-10-16T14:33:32;21.40;50.40
68719;DHT22;55696;52.138;5.444;2022-10-16T14:36:03;22.20;50.70
68719;DHT22;55696;52.138;5.444;2022-10-16T14:38:32;21.30;50.20
68719;DHT22;55696;52.138;5.444;2022-10-16T14:41:00;21.50;50.30
68719;DHT22;55696;52.138;5.444;2022-10-16T14:43:54;21.40;49.90
68719;DHT22;55696;52.138;5.444;2022-10-16T14:46:33;21.40;50.40
68719;DHT22;55696;52.138;5.444;2022-10-16T14:51:41;21.40;51.00
68719;DHT22;55696;52.138;5.444;2022-10-16T14:54:09;21.30;50.90
68719;DHT22;55696;52.138;5.444;2022-10-16T14:56:47;21.10;50.60
68719;DHT22;55696;52.138;5.444;2022-10-16T14:59:28;21.30;50.80
68719;DHT22;55696;52.138;5.444;2022-10-16T15:01:56;21.30;50.30
68719;DHT22;55696;52.138;5.444;2022-10-16T15:04:22;21.10;50.10
68719;DHT22;55696;52.138;5.444;2022-10-16T15:06:49;21.90;50.60
68719;DHT22;55696;52.138;5.444;2022-10-16T15:09:16;21.10;50.20
68719;DHT22;55696;52.138;5.444;2022-10-16T15:11:43;21.10;50.40
68719;DHT22;55696;52.138;5.444;2022-10-16T15:14:12;21.10;50.70
68719;DHT22;55696;52.138;5.444;2022-10-16T15:16:40;20.80;50.80
68719;DHT22;55696;52.138;5.444;2022-10-16T15:19:07;20.80;50.60
68719;DHT22;55696;52.138;5.444;2022-10-16T15:21:34;20.80;51.70
68719;DHT22;55696;52.138;5.444;2022-10-16T15:24:01;21.00;52.40
68719;DHT22;55696;52.138;5.444;2022-10-16T15:26:29;20.80;52.50
68719;DHT22;55696;52.138;5.444;2022-10-16T15:28:56;20.60;53.20
68719;DHT22;55696;52.138;5.444;2022-10-16T15:31:23;20.70;53.40
68719;DHT22;55696;52.138;5.444;2022-10-16T15:33:54;20.40;53.70
68719;DHT22;55696;52.138;5.444;2022-10-16T15:36:28;20.30;54.40
68719;DHT22;55696;52.138;5.444;2022-10-16T15:38:56;20.30;54.70
68719;DHT22;55696;52.138;5.444;2022-10-16T15:41:23;20.80;55.50
68719;DHT22;55696;52.138;5.444;2022-10-16T15:43:50;20.20;55.70
68719;DHT22;55696;52.138;5.444;2022-10-16T15:46:22;19.80;55.90
68719;DHT22;55696;52.138;5.444;2022-10-16T15:48:50;19.80;56.60
68719;DHT22;55696;52.138;5.444;2022-10-16T15:51:17;19.80;56.80
68719;DHT22;55696;52.138;5.444;2022-10-16T15:53:44;19.80;57.20
68719;DHT22;55696;52.138;5.444;2022-10-16T15:56:13;19.70;57.50
68719;DHT22;55696;52.138;5.444;2022-10-16T15:58:42;20.20;58.20
68719;DHT22;55696;52.138;5.444;2022-10-16T16:01:09;19.70;58.10
68719;DHT22;55696;52.138;5.444;2022-10-16T16:03:38;19.70;58.30
68719;DHT22;55696;52.138;5.444;2022-10-16T16:06:09;19.60;58.80
68719;DHT22;55696;52.138;5.444;2022-10-16T16:08:38;19.50;59.20
68719;DHT22;55696;52.138;5.444;2022-10-16T16:11:07;19.60;59.50
68719;DHT22;55696;52.138;5.444;2022-10-16T16:13:35;19.40;59.50
68719;DHT22;55696;52.138;5.444;2022-10-16T16:16:16;19.30;59.50
68719;DHT22;55696;52.138;5.444;2022-10-16T16:18:44;20.20;60.80
68719;DHT22;55696;52.138;5.444;2022-10-16T16:21:12;19.10;59.90
68719;DHT22;55696;52.138;5.444;2022-10-16T16:23:39;19.20;60.10
68719;DHT22;55696;52.138;5.444;2022-10-16T16:26:07;19.00;60.00
68719;DHT22;55696;52.138;5.444;2022-10-16T16:28:34;19.10;60.10
68719;DHT22;55696;52.138;5.444;2022-10-16T16:31:02;19.00;60.30
68719;DHT22;55696;52.138;5.444;2022-10-16T16:33:29;19.00;60.70
68719;DHT22;55696;52.138;5.444;2022-10-16T16:35:58;19.00;60.80
68719;DHT22;55696;52.138;5.444;2022-10-16T16:38:26;18.90;61.10
68719;DHT22;55696;52.138;5.444;2022-10-16T16:40:53;18.90;61.20
68719;DHT22;55696;52.138;5.444;2022-10-16T16:43:26;18.80;61.70
68719;DHT22;55696;52.138;5.444;2022-10-16T16:45:53;18.70;63.20
68719;DHT22;55696;52.138;5.444;2022-10-16T16:48:21;18.70;62.30
68719;DHT22;55696;52.138;5.444;2022-10-16T16:50:47;18.60;62.50
68719;DHT22;55696;52.138;5.444;2022-10-16T16:53:14;18.60;62.40
68719;DHT22;55696;52.138;5.444;2022-10-16T16:55:42;18.50;62.50
68719;DHT22;55696;52.138;5.444;2022-10-16T16:58:08;19.40;63.10
68719;DHT22;55696;52.138;5.444;2022-10-16T17:00:35;18.50;62.90
68719;DHT22;55696;52.138;5.444;2022-10-16T17:03:02;18.30;63.00
68719;DHT22;55696;52.138;5.444;2022-10-16T17:05:29;18.70;63.50
68719;DHT22;55696;52.138;5.444;2022-10-16T17:07:56;18.30;63.30
68719;DHT22;55696;52.138;5.444;2022-10-16T17:10:22;18.30;63.50
68719;DHT22;55696;52.138;5.444;2022-10-16T17:12:49;18.20;63.70
68719;DHT22;55696;52.138;5.444;2022-10-16T17:15:16;18.20;63.70
68719;DHT22;55696;52.138;5.444;2022-10-16T17:17:43;18.20;63.90
68719;DHT22;55696;52.138;5.444;2022-10-16T17:20:10;18.20;63.90
68719;DHT22;55696;52.138;5.444;2022-10-16T17:22:37;18.30;64.00
68719;DHT22;55696;52.138;5.444;2022-10-16T17:25:04;18.10;63.70
68719;DHT22;55696;52.138;5.444;2022-10-16T17:27:32;18.30;63.70